createdAt,value
2019-02-12T00:00:24.602Z,0.00
2019-02-12T00:01:26.442Z,0.00
2019-02-12T00:02:35.768Z,0.00
2019-02-12T00:03:41.106Z,0.00
2019-02-12T00:04:45.406Z,0.00
2019-02-12T00:05:51.968Z,0.00
2019-02-12T00:06:56.798Z,0.00
2019-02-12T00:08:07.139Z,0.00
2019-02-12T00:09:13.082Z,0.00
2019-02-12T00:10:15.343Z,0.00
2019-02-12T00:11:17.496Z,0.00
2019-02-12T00:12:32.764Z,0.00
2019-02-12T00:13:31.753Z,0.00
2019-02-12T00:14:35.746Z,0.00
2019-02-12T00:15:58.596Z,0.00
2019-02-12T00:16:45.489Z,0.00
2019-02-12T00:17:49.285Z,0.00
2019-02-12T00:19:09.266Z,0.00
2019-02-12T00:20:06.201Z,0.00
2019-02-12T00:21:10.502Z,0.00
2019-02-12T00:22:15.835Z,0.00
2019-02-12T00:23:29.674Z,0.00
2019-02-12T00:24:33.155Z,0.00
2019-02-12T00:25:33.466Z,0.00
2019-02-12T00:26:30.403Z,0.00
2019-02-12T00:27:43.550Z,0.00
2019-02-12T00:28:56.117Z,0.00
2019-02-12T00:29:52.850Z,0.00
2019-02-12T00:31:02.173Z,0.00
2019-02-12T00:32:02.698Z,0.00
2019-02-12T00:33:06.393Z,0.00
2019-02-12T00:34:25.443Z,0.00
2019-02-12T00:35:29.545Z,0.00
2019-02-12T00:36:37.740Z,0.00
2019-02-12T00:37:41.434Z,0.00
2019-02-12T00:38:42.941Z,0.00
2019-02-12T00:39:52.610Z,0.00
2019-02-12T00:40:56.141Z,0.00
2019-02-12T00:41:59.691Z,0.00
2019-02-12T00:43:01.026Z,0.00
2019-02-12T00:44:07.591Z,0.00
2019-02-12T00:45:10.361Z,0.00
2019-02-12T00:46:22.551Z,0.00
2019-02-12T00:47:29.121Z,0.00
2019-02-12T00:48:34.649Z,0.00
2019-02-12T00:49:24.321Z,0.00
2019-02-12T00:50:51.153Z,0.00
2019-02-12T00:51:50.644Z,0.00
2019-02-12T00:52:49.939Z,0.00
2019-02-12T00:53:57.830Z,0.00
2019-02-12T00:54:58.656Z,0.00
2019-02-12T00:56:11.048Z,0.00
2019-02-12T00:57:17.614Z,0.00
2019-02-12T00:58:19.777Z,0.00
2019-02-12T00:59:21.721Z,0.00
2019-02-12T01:00:37.812Z,0.00
2019-02-12T01:01:39.656Z,0.00
2019-02-12T01:02:58.912Z,0.00
2019-02-12T01:03:53.699Z,0.00
2019-02-12T01:04:59.848Z,0.00
2019-02-12T01:06:11.325Z,0.00
2019-02-12T01:07:06.213Z,0.00
2019-02-12T01:08:10.517Z,0.00
2019-02-12T01:09:20.353Z,0.00
2019-02-12T01:10:37.259Z,0.00
2019-02-12T01:11:38.595Z,0.00
2019-02-12T01:12:27.749Z,0.00
2019-02-12T01:13:49.055Z,0.00
2019-02-12T01:14:43.428Z,0.00
2019-02-12T01:15:53.060Z,0.00
2019-02-12T01:17:03.312Z,0.00
2019-02-12T01:17:56.454Z,0.00
2019-02-12T01:19:08.645Z,0.00
2019-02-12T01:20:08.553Z,0.00
2019-02-12T01:21:16.854Z,0.00
2019-02-12T01:22:31.607Z,0.00
2019-02-12T01:23:35.095Z,0.00
2019-02-12T01:24:29.470Z,0.00
2019-02-12T01:26:11.671Z,0.00
2019-02-12T01:27:11.058Z,0.00
2019-02-12T01:27:46.182Z,0.00
2019-02-12T01:28:49.709Z,0.00
2019-02-12T01:30:04.936Z,0.00
2019-02-12T01:31:16.514Z,0.00
2019-02-12T01:32:27.476Z,0.00
2019-02-12T01:33:25.131Z,0.00
2019-02-12T01:34:23.805Z,0.00
2019-02-12T01:35:44.801Z,0.00
2019-02-12T01:36:40.609Z,0.00
2019-02-12T01:37:39.339Z,0.00
2019-02-12T01:39:04.791Z,0.00
2019-02-12T01:39:45.045Z,0.00
2019-02-12T01:41:06.339Z,0.00
2019-02-12T01:42:05.219Z,0.00
2019-02-12T01:43:08.811Z,0.00
2019-02-12T01:44:22.745Z,0.00
2019-02-12T01:45:30.638Z,0.00
2019-02-12T01:46:29.313Z,0.00
2019-02-12T01:47:25.736Z,0.00
2019-02-12T01:48:41.113Z,0.00
2019-02-12T01:49:48.079Z,0.00
2019-02-12T01:50:49.210Z,0.00
2019-02-12T01:52:00.684Z,0.00
2019-02-12T01:53:02.163Z,0.00
2019-02-12T01:54:07.965Z,0.00
2019-02-12T01:55:05.732Z,0.00
2019-02-12T01:56:13.613Z,0.00
2019-02-12T01:57:19.761Z,0.00
2019-02-12T01:58:31.645Z,0.00
2019-02-12T01:59:37.491Z,0.00
2019-02-12T02:00:50.094Z,0.00
2019-02-12T02:01:33.920Z,0.00
2019-02-12T02:02:54.716Z,0.00
2019-02-12T02:03:46.537Z,0.00
2019-02-12T02:04:57.394Z,0.00
2019-02-12T02:06:07.841Z,0.00
2019-02-12T02:07:08.261Z,0.00
2019-02-12T02:08:09.087Z,0.00
2019-02-12T02:09:19.946Z,0.00
2019-02-12T02:10:16.064Z,0.00
2019-02-12T02:11:32.044Z,0.00
2019-02-12T02:12:41.164Z,0.00
2019-02-12T02:13:37.689Z,0.00
2019-02-12T02:14:40.771Z,0.00
2019-02-12T02:15:56.956Z,0.00
2019-02-12T02:17:06.690Z,0.00
2019-02-12T02:18:07.824Z,0.00
2019-02-12T02:19:06.907Z,0.00
2019-02-12T02:20:08.761Z,0.00
2019-02-12T02:21:25.048Z,0.00
2019-02-12T02:22:20.343Z,0.00
2019-02-12T02:23:33.870Z,0.00
2019-02-12T02:24:45.550Z,0.00
2019-02-12T02:25:46.886Z,0.00
2019-02-12T02:26:53.555Z,0.00
2019-02-12T02:27:54.479Z,0.00
2019-02-12T02:29:06.975Z,0.00
2019-02-12T02:29:57.767Z,0.00
2019-02-12T02:31:20.923Z,0.00
2019-02-12T02:32:12.017Z,0.00
2019-02-12T02:33:26.358Z,0.00
2019-02-12T02:34:32.309Z,0.00
2019-02-12T02:35:32.415Z,0.00
2019-02-12T02:36:32.319Z,0.00
2019-02-12T02:37:35.398Z,0.00
2019-02-12T02:38:43.083Z,0.00
2019-02-12T02:39:57.633Z,0.00
2019-02-12T02:40:57.229Z,0.00
2019-02-12T02:42:00.719Z,0.00
2019-02-12T02:43:10.453Z,0.00
2019-02-12T02:44:22.134Z,0.00
2019-02-12T02:45:20.706Z,0.00
2019-02-12T02:46:23.067Z,0.00
2019-02-12T02:47:34.658Z,0.00
2019-02-12T02:48:32.715Z,0.00
2019-02-12T02:49:40.511Z,0.00
2019-02-12T02:50:46.852Z,0.00
2019-02-12T02:52:04.880Z,0.00
2019-02-12T02:53:01.105Z,0.00
2019-02-12T02:53:55.583Z,0.00
2019-02-12T02:55:13.914Z,0.00
2019-02-12T02:56:17.097Z,0.00
2019-02-12T02:57:14.036Z,0.00
2019-02-12T02:58:29.397Z,0.00
2019-02-12T02:59:39.548Z,0.00
2019-02-12T03:00:36.373Z,0.00
2019-02-12T03:01:39.965Z,0.00
2019-02-12T03:02:52.054Z,0.00
2019-02-12T03:03:56.159Z,0.00
2019-02-12T03:05:06.507Z,0.00
2019-02-12T03:06:07.743Z,0.00
2019-02-12T03:07:10.831Z,0.00
2019-02-12T03:08:31.514Z,0.00
2019-02-12T03:09:23.945Z,0.00
2019-02-12T03:10:23.745Z,0.00
2019-02-12T03:11:38.822Z,0.00
2019-02-12T03:12:35.126Z,0.00
2019-02-12T03:13:52.239Z,0.00
2019-02-12T03:14:50.196Z,0.00
2019-02-12T03:15:57.467Z,0.00
2019-02-12T03:17:01.060Z,0.00
2019-02-12T03:18:15.096Z,0.00
2019-02-12T03:19:15.001Z,0.00
2019-02-12T03:20:24.734Z,0.00
2019-02-12T03:21:20.849Z,0.00
2019-02-12T03:22:26.897Z,0.00
2019-02-12T03:23:27.418Z,0.00
2019-02-12T03:24:37.467Z,0.00
2019-02-12T03:25:41.666Z,0.00
2019-02-12T03:26:58.365Z,0.00
2019-02-12T03:27:53.665Z,0.00
2019-02-12T03:29:06.881Z,0.00
2019-02-12T03:30:07.714Z,0.00
2019-02-12T03:31:38.341Z,0.00
2019-02-12T03:32:35.681Z,0.00
2019-02-12T03:33:40.084Z,0.00
2019-02-12T03:34:38.551Z,0.00
2019-02-12T03:35:33.334Z,0.00
2019-02-12T03:36:36.935Z,0.00
2019-02-12T03:38:02.332Z,0.00
2019-02-12T03:39:00.697Z,0.00
2019-02-12T03:40:03.672Z,0.00
2019-02-12T03:41:05.730Z,0.00
2019-02-12T03:42:08.502Z,0.00
2019-02-12T03:43:41.386Z,0.00
2019-02-12T03:44:15.604Z,0.00
2019-02-12T03:45:36.886Z,0.00
2019-02-12T03:46:33.414Z,0.00
2019-02-12T03:47:38.641Z,0.00
2019-02-12T03:48:38.138Z,0.00
2019-02-12T03:49:58.733Z,0.00
2019-02-12T03:51:03.954Z,0.00
2019-02-12T03:51:58.840Z,0.00
2019-02-12T03:53:15.131Z,0.00
2019-02-12T03:54:06.744Z,0.00
2019-02-12T03:55:26.619Z,0.00
2019-02-12T03:56:14.946Z,0.00
2019-02-12T03:57:41.378Z,0.00
2019-02-12T03:58:40.561Z,0.00
2019-02-12T03:59:46.709Z,0.00
2019-02-12T04:00:48.683Z,0.00
2019-02-12T04:01:57.067Z,0.00
2019-02-12T04:02:47.867Z,0.00
2019-02-12T04:04:10.700Z,0.00
2019-02-12T04:05:19.820Z,0.00
2019-02-12T04:06:16.861Z,0.00
2019-02-12T04:07:36.424Z,0.00
2019-02-12T04:08:37.573Z,0.00
2019-02-12T04:09:46.179Z,0.00
2019-02-12T04:10:47.095Z,0.00
2019-02-12T04:11:43.950Z,0.00
2019-02-12T04:12:48.848Z,0.00
2019-02-12T04:13:42.738Z,0.00
2019-02-12T04:15:01.368Z,0.00
2019-02-12T04:16:02.799Z,0.00
2019-02-12T04:17:01.581Z,0.00
2019-02-12T04:18:10.402Z,0.00
2019-02-12T04:19:38.045Z,0.00
2019-02-12T04:20:26.583Z,0.00
2019-02-12T04:21:37.442Z,0.00
2019-02-12T04:23:03.356Z,0.00
2019-02-12T04:23:44.315Z,0.00
2019-02-12T04:24:47.703Z,0.00
2019-02-12T04:25:59.895Z,0.00
2019-02-12T04:26:52.664Z,0.00
2019-02-12T04:28:11.070Z,0.00
2019-02-12T04:29:40.674Z,0.00
2019-02-12T04:30:15.805Z,0.00
2019-02-12T04:31:53.076Z,0.00
2019-02-12T04:32:50.216Z,0.00
2019-02-12T04:34:19.915Z,0.00
2019-02-12T04:34:56.883Z,0.00
2019-02-12T04:36:03.881Z,0.00
2019-02-12T04:37:18.915Z,0.00
2019-02-12T04:38:15.438Z,0.00
2019-02-12T04:40:01.946Z,0.00
2019-02-12T04:40:40.130Z,0.00
2019-02-12T04:42:17.312Z,0.00
2019-02-12T04:43:17.520Z,0.00
2019-02-12T04:44:11.189Z,0.00
2019-02-12T04:44:54.279Z,0.00
2019-02-12T04:46:57.083Z,0.00
2019-02-12T04:47:46.118Z,0.00
2019-02-12T04:49:16.441Z,0.00
2019-02-12T04:50:26.377Z,0.00
2019-02-12T04:51:44.919Z,0.00
2019-02-12T04:52:57.723Z,0.00
2019-02-12T04:53:36.123Z,0.00
2019-02-12T04:54:55.387Z,0.00
2019-02-12T04:56:17.917Z,0.00
2019-02-12T04:57:38.107Z,0.00
2019-02-12T04:58:37.897Z,0.00
2019-02-12T04:59:42.313Z,0.00
2019-02-12T05:00:59.935Z,0.00
2019-02-12T05:01:35.051Z,0.00
2019-02-12T05:03:22.267Z,0.00
2019-02-12T05:04:28.213Z,0.00
2019-02-12T05:05:13.167Z,0.00
2019-02-12T05:07:20.758Z,0.00
2019-02-12T05:08:10.225Z,0.00
2019-02-12T05:09:22.718Z,0.00
2019-02-12T05:10:36.453Z,0.00
2019-02-12T05:11:37.382Z,0.00
2019-02-12T05:12:25.300Z,0.00
2019-02-12T05:13:54.912Z,0.00
2019-02-12T05:15:18.356Z,0.00
2019-02-12T05:15:54.507Z,0.00
2019-02-12T05:17:20.006Z,0.00
2019-02-12T05:18:09.159Z,0.00
2019-02-12T05:19:43.676Z,0.00
2019-02-12T05:20:53.310Z,0.00
2019-02-12T05:21:45.735Z,0.00
2019-02-12T05:22:52.911Z,0.00
2019-02-12T05:23:42.886Z,0.00
2019-02-12T05:24:57.330Z,0.00
2019-02-12T05:26:10.630Z,0.00
2019-02-12T05:27:13.015Z,0.00
2019-02-12T05:27:58.272Z,0.00
2019-02-12T05:29:20.207Z,0.00
2019-02-12T05:30:44.366Z,0.00
2019-02-12T05:31:36.283Z,0.00
2019-02-12T05:32:39.988Z,0.00
2019-02-12T05:33:55.037Z,0.00
2019-02-12T05:34:41.221Z,0.00
2019-02-12T05:35:53.922Z,0.00
2019-02-12T05:36:42.560Z,0.00
2019-02-12T05:37:51.175Z,0.00
2019-02-12T05:39:32.035Z,0.00
2019-02-12T05:40:12.791Z,0.00
2019-02-12T05:41:46.488Z,0.00
2019-02-12T05:42:47.828Z,0.00
2019-02-12T05:43:43.638Z,0.00
2019-02-12T05:45:01.776Z,0.00
2019-02-12T05:45:45.390Z,0.00
2019-02-12T05:46:59.531Z,0.00
2019-02-12T05:47:58.314Z,0.00
2019-02-12T05:49:06.302Z,0.00
2019-02-12T05:50:03.349Z,0.00
2019-02-12T05:51:14.918Z,0.00
2019-02-12T05:52:22.398Z,0.00
2019-02-12T05:53:40.018Z,0.00
2019-02-12T05:54:25.713Z,0.00
2019-02-12T05:55:40.032Z,0.00
2019-02-12T05:56:48.233Z,0.00
2019-02-12T05:57:59.098Z,0.00
2019-02-12T05:58:54.695Z,0.00
2019-02-12T06:00:00.033Z,0.00
2019-02-12T06:01:02.799Z,0.00
2019-02-12T06:02:22.772Z,0.00
2019-02-12T06:03:20.631Z,0.00
2019-02-12T06:04:27.091Z,0.00
2019-02-12T06:05:26.273Z,0.00
2019-02-12T06:06:41.133Z,0.00
2019-02-12T06:07:44.210Z,0.00
2019-02-12T06:08:44.214Z,0.00
2019-02-12T06:09:46.276Z,0.00
2019-02-12T06:11:17.817Z,0.00
2019-02-12T06:12:08.929Z,0.00
2019-02-12T06:13:13.977Z,0.00
2019-02-12T06:14:24.906Z,0.00
2019-02-12T06:15:33.818Z,0.00
2019-02-12T06:16:34.135Z,0.00
2019-02-12T06:17:29.739Z,0.00
2019-02-12T06:18:43.568Z,0.00
2019-02-12T06:19:46.551Z,0.00
2019-02-12T06:20:59.354Z,0.00
2019-02-12T06:21:44.106Z,0.00
2019-02-12T06:23:22.303Z,0.00
2019-02-12T06:24:17.394Z,0.00
2019-02-12T06:25:19.143Z,0.00
2019-02-12T06:26:28.366Z,0.00
2019-02-12T06:27:33.494Z,0.00
2019-02-12T06:28:26.127Z,0.00
2019-02-12T06:29:36.069Z,0.00
2019-02-12T06:30:32.694Z,0.00
2019-02-12T06:32:09.973Z,0.00
2019-02-12T06:33:19.711Z,0.00
2019-02-12T06:34:16.341Z,0.00
2019-02-12T06:35:16.554Z,0.00
2019-02-12T06:36:42.410Z,0.00
2019-02-12T06:37:19.411Z,0.00
2019-02-12T06:39:00.808Z,0.00
2019-02-12T06:39:52.417Z,0.00
2019-02-12T06:41:02.460Z,0.00
2019-02-12T06:41:50.585Z,0.00
2019-02-12T06:43:19.369Z,0.00
2019-02-12T06:44:50.403Z,0.00
2019-02-12T06:46:24.921Z,0.00
2019-02-12T06:47:55.235Z,0.00
2019-02-12T06:49:02.721Z,0.00
2019-02-12T06:49:55.968Z,0.00
2019-02-12T06:51:48.505Z,0.00
2019-02-12T06:53:34.081Z,0.00
2019-02-12T06:54:27.841Z,0.00
2019-02-12T06:55:35.739Z,0.00
2019-02-12T06:56:51.410Z,0.00
2019-02-12T06:57:41.787Z,0.00
2019-02-12T06:58:38.143Z,0.00
2019-02-12T06:59:59.109Z,0.00
2019-02-12T07:00:46.517Z,0.00
2019-02-12T07:02:19.701Z,0.00
2019-02-12T07:03:30.361Z,0.00
2019-02-12T07:04:49.415Z,0.00
2019-02-12T07:06:41.031Z,0.00
2019-02-12T07:07:59.880Z,0.00
2019-02-12T07:09:34.805Z,0.00
2019-02-12T07:10:24.061Z,0.00
2019-02-12T07:11:54.789Z,0.00
2019-02-12T07:12:56.126Z,0.00
2019-02-12T07:14:10.475Z,0.00
2019-02-12T07:15:11.518Z,0.00
2019-02-12T07:16:35.567Z,0.00
2019-02-12T07:17:39.568Z,0.00
2019-02-12T07:18:45.617Z,0.00
2019-02-12T07:19:41.017Z,0.00
2019-02-12T07:20:53.413Z,0.00
2019-02-12T07:21:55.271Z,0.00
2019-02-12T07:22:41.038Z,0.00
2019-02-12T07:24:16.579Z,0.00
2019-02-12T07:25:11.678Z,0.00
2019-02-12T07:26:24.274Z,0.00
2019-02-12T07:27:04.412Z,5.63
2019-02-12T07:28:38.824Z,5.63
2019-02-12T07:29:31.973Z,5.63
2019-02-12T07:30:44.165Z,5.63
2019-02-12T07:31:20.109Z,5.63
2019-02-12T07:32:48.382Z,5.63
2019-02-12T07:33:44.289Z,5.63
2019-02-12T07:34:55.772Z,5.63
2019-02-12T07:36:08.158Z,5.63
2019-02-12T07:37:10.218Z,5.63
2019-02-12T07:38:01.724Z,5.63
2019-02-12T07:39:22.413Z,5.63
2019-02-12T07:40:19.349Z,5.63
2019-02-12T07:41:20.104Z,5.63
2019-02-12T07:42:32.778Z,0.00
2019-02-12T07:43:38.928Z,0.00
2019-02-12T07:44:21.219Z,0.00
2019-02-12T07:45:46.636Z,0.00
2019-02-12T07:46:54.211Z,0.00
2019-02-12T07:47:38.240Z,0.00
2019-02-12T07:49:04.470Z,0.00
2019-02-12T07:50:28.124Z,0.00
2019-02-12T07:51:04.677Z,5.63
2019-02-12T07:52:17.077Z,5.63
2019-02-12T07:53:30.986Z,5.63
2019-02-12T07:54:16.472Z,5.63
2019-02-12T07:55:21.705Z,5.63
2019-02-12T07:56:59.497Z,5.63
2019-02-12T07:57:49.777Z,5.63
2019-02-12T07:58:51.114Z,5.63
2019-02-12T07:59:44.269Z,5.63
2019-02-12T08:00:57.886Z,5.63
2019-02-12T08:02:05.063Z,5.63
2019-02-12T08:03:09.883Z,5.63
2019-02-12T08:04:17.772Z,5.63
2019-02-12T08:05:03.650Z,5.63
2019-02-12T08:06:27.935Z,5.63
2019-02-12T08:07:34.076Z,5.63
2019-02-12T08:08:34.311Z,5.63
2019-02-12T08:09:46.179Z,5.63
2019-02-12T08:10:43.623Z,5.63
2019-02-12T08:11:45.368Z,5.63
2019-02-12T08:12:39.848Z,5.63
2019-02-12T08:13:56.140Z,5.63
2019-02-12T08:15:05.460Z,5.63
2019-02-12T08:16:11.608Z,5.63
2019-02-12T08:17:15.722Z,5.63
2019-02-12T08:18:15.005Z,5.63
2019-02-12T08:19:21.868Z,5.63
2019-02-12T08:20:27.213Z,5.63
2019-02-12T08:21:34.582Z,5.63
2019-02-12T08:22:53.223Z,5.63
2019-02-12T08:23:41.721Z,5.63
2019-02-12T08:25:01.125Z,5.63
2019-02-12T08:26:00.315Z,5.63
2019-02-12T08:27:10.560Z,5.63
2019-02-12T08:28:02.079Z,5.63
2019-02-12T08:29:22.864Z,5.63
2019-02-12T08:30:23.789Z,5.63
2019-02-12T08:31:22.646Z,5.63
2019-02-12T08:32:32.711Z,5.63
2019-02-12T08:33:43.571Z,5.63
2019-02-12T08:34:39.583Z,5.63
2019-02-12T08:35:57.009Z,5.63
2019-02-12T08:36:59.977Z,5.63
2019-02-12T08:37:59.571Z,5.63
2019-02-12T08:39:06.757Z,5.63
2019-02-12T08:39:57.042Z,5.63
2019-02-12T08:41:12.394Z,5.63
2019-02-12T08:42:30.222Z,5.63
2019-02-12T08:43:25.113Z,5.63
2019-02-12T08:44:30.028Z,5.63
2019-02-12T08:45:33.724Z,5.63
2019-02-12T08:46:43.045Z,5.63
2019-02-12T08:47:39.983Z,5.63
2019-02-12T08:48:52.501Z,5.63
2019-02-12T08:50:01.400Z,5.63
2019-02-12T08:51:04.393Z,5.63
2019-02-12T08:51:57.013Z,5.63
2019-02-12T08:53:16.572Z,5.63
2019-02-12T08:54:16.189Z,5.63
2019-02-12T08:55:25.086Z,5.63
2019-02-12T08:56:33.593Z,5.63
2019-02-12T08:57:36.878Z,5.63
2019-02-12T08:58:36.677Z,5.63
2019-02-12T08:59:54.193Z,5.63
2019-02-12T09:00:51.762Z,5.63
2019-02-12T09:02:06.496Z,5.63
2019-02-12T09:03:09.683Z,5.63
2019-02-12T09:04:03.134Z,5.63
2019-02-12T09:05:13.073Z,5.63
2019-02-12T09:06:20.248Z,5.63
2019-02-12T09:07:24.871Z,11.25
2019-02-12T09:08:28.563Z,11.25
2019-02-12T09:09:35.831Z,11.25
2019-02-12T09:10:36.759Z,11.25
2019-02-12T09:11:52.744Z,11.25
2019-02-12T09:12:45.277Z,11.25
2019-02-12T09:14:01.681Z,11.25
2019-02-12T09:15:06.688Z,11.25
2019-02-12T09:16:00.140Z,16.88
2019-02-12T09:17:10.901Z,16.88
2019-02-12T09:18:10.703Z,16.88
2019-02-12T09:19:29.242Z,16.88
2019-02-12T09:20:33.653Z,16.88
2019-02-12T09:21:34.379Z,16.88
2019-02-12T09:22:48.211Z,11.25
2019-02-12T09:23:44.428Z,11.25
2019-02-12T09:24:53.656Z,11.25
2019-02-12T09:25:58.581Z,11.25
2019-02-12T09:27:09.230Z,11.25
2019-02-12T09:28:09.650Z,11.25
2019-02-12T09:29:11.291Z,11.25
2019-02-12T09:30:15.092Z,5.63
2019-02-12T09:31:28.199Z,5.63
2019-02-12T09:32:27.389Z,5.63
2019-02-12T09:33:28.932Z,5.63
2019-02-12T09:34:40.923Z,5.63
2019-02-12T09:35:49.017Z,5.63
2019-02-12T09:36:59.782Z,5.63
2019-02-12T09:38:02.134Z,5.63
2019-02-12T09:39:08.600Z,5.63
2019-02-12T09:40:18.934Z,5.63
2019-02-12T09:41:14.860Z,5.63
2019-02-12T09:42:23.465Z,5.63
2019-02-12T09:43:32.789Z,11.25
2019-02-12T09:44:27.369Z,11.25
2019-02-12T09:45:39.767Z,11.25
2019-02-12T09:46:44.075Z,11.25
2019-02-12T09:47:44.387Z,11.25
2019-02-12T09:48:51.573Z,11.25
2019-02-12T09:49:58.744Z,11.25
2019-02-12T09:51:02.043Z,11.25
2019-02-12T09:52:10.529Z,11.25
2019-02-12T09:53:07.664Z,11.25
2019-02-12T09:54:20.481Z,11.25
2019-02-12T09:55:29.390Z,11.25
2019-02-12T09:56:31.138Z,11.25
2019-02-12T09:57:33.095Z,16.88
2019-02-12T09:58:47.637Z,16.88
2019-02-12T09:59:49.797Z,16.88
2019-02-12T10:00:49.911Z,16.88
2019-02-12T10:01:53.800Z,16.88
2019-02-12T10:03:02.613Z,16.88
2019-02-12T10:04:05.589Z,16.88
2019-02-12T10:05:15.941Z,16.88
2019-02-12T10:06:22.948Z,16.88
2019-02-12T10:07:15.037Z,22.50
2019-02-12T10:08:27.945Z,22.50
2019-02-12T10:09:36.047Z,22.50
2019-02-12T10:10:45.467Z,22.50
2019-02-12T10:11:45.984Z,22.50
2019-02-12T10:12:52.239Z,22.50
2019-02-12T10:14:07.819Z,28.13
2019-02-12T10:15:00.451Z,28.13
2019-02-12T10:16:06.594Z,28.13
2019-02-12T10:17:10.390Z,28.13
2019-02-12T10:18:21.151Z,28.13
2019-02-12T10:19:26.381Z,28.13
2019-02-12T10:20:35.601Z,28.13
2019-02-12T10:21:42.988Z,28.13
2019-02-12T10:22:38.480Z,33.75
2019-02-12T10:23:46.170Z,33.75
2019-02-12T10:25:02.767Z,39.38
2019-02-12T10:25:58.266Z,39.38
2019-02-12T10:27:07.796Z,45.00
2019-02-12T10:28:10.896Z,45.00
2019-02-12T10:29:12.723Z,45.00
2019-02-12T10:30:22.868Z,50.63
2019-02-12T10:31:25.437Z,50.63
2019-02-12T10:32:24.217Z,50.63
2019-02-12T10:33:38.661Z,56.25
2019-02-12T10:34:39.178Z,56.25
2019-02-12T10:35:44.510Z,56.25
2019-02-12T10:36:44.927Z,56.25
2019-02-12T10:37:59.679Z,61.88
2019-02-12T10:39:07.266Z,61.88
2019-02-12T10:40:09.015Z,56.25
2019-02-12T10:41:10.349Z,56.25
2019-02-12T10:42:16.500Z,50.63
2019-02-12T10:43:24.403Z,50.63
2019-02-12T10:44:33.823Z,50.63
2019-02-12T10:45:38.027Z,45.00
2019-02-12T10:46:39.055Z,45.00
2019-02-12T10:47:51.969Z,45.00
2019-02-12T10:48:52.749Z,45.00
2019-02-12T10:49:48.911Z,45.00
2019-02-12T10:50:55.056Z,39.38
2019-02-12T10:52:05.921Z,39.38
2019-02-12T10:53:04.808Z,39.38
2019-02-12T10:54:13.155Z,39.38
2019-02-12T10:55:20.687Z,39.38
2019-02-12T10:56:24.279Z,45.00
2019-02-12T10:57:27.669Z,45.00
2019-02-12T10:58:43.961Z,45.00
2019-02-12T10:59:45.717Z,45.00
2019-02-12T11:00:48.677Z,50.63
2019-02-12T11:01:55.750Z,50.63
2019-02-12T11:03:06.612Z,50.63
2019-02-12T11:04:03.346Z,56.25
2019-02-12T11:05:12.472Z,56.25
2019-02-12T11:06:23.423Z,61.88
2019-02-12T11:07:24.156Z,56.25
2019-02-12T11:08:38.392Z,61.88
2019-02-12T11:09:35.221Z,56.25
2019-02-12T11:10:39.528Z,56.25
2019-02-12T11:11:41.278Z,50.63
2019-02-12T11:12:52.248Z,56.25
2019-02-12T11:13:57.570Z,56.25
2019-02-12T11:15:08.744Z,56.25
2019-02-12T11:16:10.491Z,56.25
2019-02-12T11:17:14.083Z,50.63
2019-02-12T11:18:19.618Z,50.63
2019-02-12T11:19:39.801Z,56.25
2019-02-12T11:20:36.013Z,50.63
2019-02-12T11:21:43.801Z,50.63
2019-02-12T11:22:48.214Z,56.25
2019-02-12T11:23:50.989Z,56.25
2019-02-12T11:25:12.699Z,56.25
2019-02-12T11:26:09.735Z,50.63
2019-02-12T11:27:01.766Z,56.25
2019-02-12T11:28:23.074Z,56.25
2019-02-12T11:29:22.661Z,56.25
2019-02-12T11:30:35.367Z,56.25
2019-02-12T11:31:34.654Z,50.63
2019-02-12T11:32:47.778Z,61.88
2019-02-12T11:33:43.474Z,67.50
2019-02-12T11:35:00.281Z,67.50
2019-02-12T11:36:22.404Z,56.25
2019-02-12T11:37:01.521Z,73.13
2019-02-12T11:38:26.409Z,84.38
2019-02-12T11:39:07.473Z,84.38
2019-02-12T11:40:42.293Z,78.75
2019-02-12T11:41:36.047Z,78.75
2019-02-12T11:42:52.349Z,67.50
2019-02-12T11:43:54.501Z,95.63
2019-02-12T11:45:19.188Z,67.50
2019-02-12T11:45:57.273Z,33.75
2019-02-12T11:47:25.157Z,39.38
2019-02-12T11:48:29.143Z,39.38
2019-02-12T11:49:32.321Z,61.88
2019-02-12T11:50:51.066Z,67.50
2019-02-12T11:51:34.586Z,67.50
2019-02-12T11:52:39.301Z,67.50
2019-02-12T11:54:14.023Z,61.88
2019-02-12T11:55:18.038Z,50.63
2019-02-12T11:56:02.671Z,45.00
2019-02-12T11:57:01.049Z,45.00
2019-02-12T11:58:15.997Z,39.38
2019-02-12T11:59:29.933Z,39.38
2019-02-12T12:00:34.958Z,39.38
2019-02-12T12:01:54.931Z,50.63
2019-02-12T12:03:07.839Z,56.25
2019-02-12T12:03:59.859Z,45.00
2019-02-12T12:05:01.821Z,50.63
2019-02-12T12:05:48.721Z,56.25
2019-02-12T12:07:02.961Z,56.25
2019-02-12T12:08:19.753Z,61.88
2019-02-12T12:09:53.246Z,61.88
2019-02-12T12:10:44.853Z,61.88
2019-02-12T12:12:28.895Z,45.00
2019-02-12T12:13:57.676Z,39.38
2019-02-12T12:15:24.103Z,39.38
2019-02-12T12:16:07.417Z,39.38
2019-02-12T12:16:58.619Z,39.38
2019-02-12T12:18:52.795Z,45.00
2019-02-12T12:19:32.527Z,45.00
2019-02-12T12:21:15.752Z,50.63
2019-02-12T12:22:08.890Z,45.00
2019-02-12T12:23:24.773Z,39.38
2019-02-12T12:24:10.136Z,39.38
2019-02-12T12:25:31.131Z,39.38
2019-02-12T12:26:14.348Z,33.75
2019-02-12T12:28:18.557Z,33.75
2019-02-12T12:29:12.429Z,28.13
2019-02-12T12:30:19.032Z,28.13
2019-02-12T12:31:16.222Z,28.13
2019-02-12T12:32:54.225Z,22.50
2019-02-12T12:33:30.984Z,22.50
2019-02-12T12:34:42.262Z,16.88
2019-02-12T12:35:36.637Z,16.88
2019-02-12T12:38:00.203Z,16.88
2019-02-12T12:38:52.213Z,16.88
2019-02-12T12:39:36.862Z,16.88
2019-02-12T12:41:19.163Z,16.88
2019-02-12T12:42:20.191Z,16.88
2019-02-12T12:43:39.147Z,16.88
2019-02-12T12:44:25.534Z,16.88
2019-02-12T12:45:48.576Z,16.88
2019-02-12T12:46:53.089Z,16.88
2019-02-12T12:48:24.025Z,16.88
2019-02-12T12:49:00.171Z,16.88
2019-02-12T12:50:01.816Z,16.88
2019-02-12T12:51:32.071Z,22.50
2019-02-12T12:52:19.958Z,22.50
2019-02-12T12:53:18.014Z,22.50
2019-02-12T12:54:33.583Z,22.50
2019-02-12T12:56:16.812Z,22.50
2019-02-12T12:56:55.825Z,22.50
2019-02-12T12:58:15.800Z,22.50
2019-02-12T12:59:01.263Z,22.50
2019-02-12T13:00:27.790Z,11.25
2019-02-12T13:01:38.771Z,11.25
2019-02-12T13:02:36.719Z,11.25
2019-02-12T13:03:42.670Z,11.25
2019-02-12T13:04:33.975Z,11.25
2019-02-12T13:05:57.622Z,11.25
2019-02-12T13:06:47.605Z,16.88
2019-02-12T13:07:59.584Z,16.88
2019-02-12T13:09:04.711Z,16.88
2019-02-12T13:10:24.682Z,16.88
2019-02-12T13:11:11.484Z,16.88
2019-02-12T13:12:22.549Z,16.88
2019-02-12T13:13:43.445Z,16.88
2019-02-12T13:14:35.464Z,16.88
2019-02-12T13:15:29.941Z,16.88
2019-02-12T13:16:24.418Z,16.88
2019-02-12T13:17:23.199Z,16.88
2019-02-12T13:18:45.346Z,22.50
2019-02-12T13:20:08.368Z,22.50
2019-02-12T13:21:12.274Z,22.50
2019-02-12T13:22:03.876Z,22.50
2019-02-12T13:23:10.233Z,22.50
2019-02-12T13:24:26.212Z,22.50
2019-02-12T13:25:20.186Z,22.50
2019-02-12T13:26:45.177Z,22.50
2019-02-12T13:27:42.319Z,22.50
2019-02-12T13:28:46.722Z,22.50
2019-02-12T13:29:48.164Z,22.50
2019-02-12T13:31:08.135Z,22.50
2019-02-12T13:32:09.065Z,22.50
2019-02-12T13:33:16.976Z,22.50
2019-02-12T13:34:22.033Z,22.50
2019-02-12T13:35:25.582Z,22.50
2019-02-12T13:36:15.076Z,22.50
2019-02-12T13:37:18.214Z,28.13
2019-02-12T13:38:47.099Z,33.75
2019-02-12T13:39:35.020Z,22.50
2019-02-12T13:41:06.977Z,11.25
2019-02-12T13:41:45.887Z,11.25
2019-02-12T13:43:03.923Z,11.25
2019-02-12T13:44:25.838Z,11.25
2019-02-12T13:45:11.918Z,11.25
2019-02-12T13:46:33.891Z,11.25
2019-02-12T13:47:39.789Z,11.25
2019-02-12T13:48:28.062Z,11.25
2019-02-12T13:49:20.855Z,11.25
2019-02-12T13:50:53.732Z,11.25
2019-02-12T13:51:51.385Z,11.25
2019-02-12T13:53:04.048Z,11.25
2019-02-12T13:53:55.698Z,11.25
2019-02-12T13:55:04.818Z,11.25
2019-02-12T13:56:35.098Z,22.50
2019-02-12T13:57:34.640Z,33.75
2019-02-12T13:58:25.627Z,33.75
2019-02-12T13:59:43.563Z,33.75
2019-02-12T14:00:33.739Z,39.38
2019-02-12T14:01:40.499Z,61.88
2019-02-12T14:03:04.568Z,61.88
2019-02-12T14:04:03.681Z,56.25
2019-02-12T14:05:01.918Z,56.25
2019-02-12T14:06:15.324Z,50.63
2019-02-12T14:07:34.395Z,67.50
2019-02-12T14:08:22.428Z,123.75
2019-02-12T14:09:40.044Z,112.50
2019-02-12T14:10:34.619Z,78.75
2019-02-12T14:11:49.578Z,129.38
2019-02-12T14:13:06.068Z,73.13
2019-02-12T14:13:33.925Z,73.13
2019-02-12T14:15:07.413Z,84.38
2019-02-12T14:16:20.120Z,95.63
2019-02-12T14:17:10.295Z,129.38
2019-02-12T14:17:51.971Z,118.13
2019-02-12T14:19:12.878Z,112.50
2019-02-12T14:20:07.547Z,247.50
2019-02-12T14:21:20.774Z,292.50
2019-02-12T14:22:28.253Z,157.50
2019-02-12T14:23:30.618Z,168.75
2019-02-12T14:24:45.990Z,140.63
2019-02-12T14:25:41.175Z,185.63
2019-02-12T14:26:54.398Z,196.88
2019-02-12T14:27:56.344Z,151.88
2019-02-12T14:28:58.099Z,191.25
2019-02-12T14:30:00.248Z,129.38
2019-02-12T14:31:07.122Z,118.13
2019-02-12T14:32:11.014Z,106.88
2019-02-12T14:33:16.038Z,95.63
2019-02-12T14:34:23.826Z,90.00